createdAt,value
2018-12-11T04:27:34.032Z,12.20
2018-12-11T04:30:08.516Z,6.07
2018-12-11T04:32:41.250Z,9.10
2018-12-11T04:35:13.613Z,6.57
2018-12-11T04:37:46.609Z,5.67
2018-12-11T04:40:18.900Z,9.90
2018-12-11T04:42:51.144Z,6.03
2018-12-11T04:45:23.482Z,7.07
2018-12-11T04:47:55.932Z,10.27
2018-12-11T04:50:28.845Z,7.53
2018-12-11T04:53:01.616Z,9.03
2018-12-11T04:55:33.927Z,10.43
2018-12-11T04:58:08.575Z,7.40
2018-12-11T05:00:41.596Z,5.27
2018-12-11T05:03:13.697Z,6.73
2018-12-11T05:05:45.815Z,7.17
2018-12-11T05:08:18.155Z,8.60
2018-12-11T05:10:56.876Z,14.03
2018-12-11T05:13:29.827Z,8.00
2018-12-11T05:16:02.266Z,11.03
2018-12-11T05:18:34.612Z,8.87
2018-12-11T05:21:06.908Z,10.30
2018-12-11T05:23:39.272Z,13.83
2018-12-11T05:26:11.356Z,9.00
2018-12-11T05:28:46.252Z,9.70
2018-12-11T05:31:19.872Z,9.03
2018-12-11T05:33:53.734Z,11.77
2018-12-11T05:36:26.917Z,16.40
2018-12-11T05:38:59.511Z,21.37
2018-12-11T05:41:33.964Z,11.37
2018-12-11T05:44:07.032Z,10.60
2018-12-11T05:46:44.324Z,6.00
2018-12-11T05:49:17.334Z,7.33
2018-12-11T05:51:49.706Z,6.83
2018-12-11T05:54:22.941Z,2.93
2018-12-11T05:56:57.052Z,7.87
2018-12-11T05:59:30.218Z,4.30
2018-12-11T06:02:04.120Z,5.33
2018-12-11T06:04:37.634Z,7.43
2018-12-11T06:07:11.277Z,6.50
2018-12-11T06:09:47.178Z,5.90
2018-12-11T06:12:21.050Z,4.70
2018-12-11T06:14:54.197Z,6.80
2018-12-11T06:17:27.335Z,11.73
2018-12-11T06:20:02.316Z,6.90
2018-12-11T06:22:37.489Z,4.50
2018-12-11T06:25:10.529Z,7.13
2018-12-11T06:27:43.344Z,4.70
2018-12-11T06:30:17.016Z,6.33
2018-12-11T06:32:51.951Z,7.83
2018-12-11T06:35:25.900Z,12.20
2018-12-11T06:37:59.047Z,6.60
2018-12-11T06:40:32.165Z,4.70
2018-12-11T06:43:04.580Z,3.97
2018-12-11T06:45:37.804Z,6.97
2018-12-11T06:48:10.096Z,8.43
2018-12-11T06:50:44.649Z,6.87
2018-12-11T06:53:17.620Z,7.70
2018-12-11T06:55:51.048Z,9.90
2018-12-11T06:58:28.534Z,4.10
2018-12-11T07:01:01.968Z,10.57
2018-12-11T07:03:35.094Z,9.27
2018-12-11T07:06:10.357Z,8.27
2018-12-11T07:08:45.220Z,7.13
2018-12-11T07:11:18.173Z,8.13
2018-12-11T07:13:50.340Z,6.80
2018-12-11T07:16:22.657Z,6.20
2018-12-11T07:18:55.834Z,5.57
2018-12-11T07:21:29.103Z,7.50
2018-12-11T07:24:02.136Z,7.07
2018-12-11T07:26:34.433Z,5.10
2018-12-11T07:29:06.617Z,11.27
2018-12-11T07:31:39.675Z,6.73
2018-12-11T07:34:11.974Z,6.93
2018-12-11T07:36:44.337Z,7.43
2018-12-11T07:39:16.819Z,4.90
2018-12-11T07:41:49.125Z,7.17
2018-12-11T07:44:21.409Z,7.90
2018-12-11T07:46:53.878Z,5.57
2018-12-11T07:49:25.983Z,16.87
2018-12-11T07:51:58.462Z,28.07
2018-12-11T07:54:30.820Z,7.53
2018-12-11T07:57:03.033Z,9.97
2018-12-11T07:59:35.175Z,4.63
2018-12-11T08:02:07.903Z,7.13
2018-12-11T08:04:40.124Z,4.00
2018-12-11T08:07:12.560Z,7.70
2018-12-11T08:09:54.161Z,6.40
2018-12-11T08:12:34.419Z,4.47
2018-12-11T08:15:09.373Z,6.30
2018-12-11T08:17:43.179Z,5.57
2018-12-11T08:20:16.127Z,6.83
2018-12-11T08:22:48.454Z,4.20
2018-12-11T08:25:21.669Z,5.53
2018-12-11T08:27:54.798Z,6.53
2018-12-11T08:30:25.469Z,6.27
2018-12-11T08:32:58.228Z,6.77
2018-12-11T08:35:31.103Z,7.77
2018-12-11T08:38:05.636Z,7.23
2018-12-11T08:40:38.537Z,6.77
2018-12-11T08:43:11.720Z,8.33
2018-12-11T08:45:44.043Z,6.10
2018-12-11T08:48:16.477Z,4.87
2018-12-11T08:50:49.790Z,6.07
2018-12-11T08:53:22.881Z,8.47
2018-12-11T08:55:55.662Z,6.97
2018-12-11T08:58:29.499Z,5.17
2018-12-11T09:01:01.736Z,7.73
2018-12-11T09:03:34.886Z,9.17
2018-12-11T09:06:07.612Z,4.03
2018-12-11T09:08:41.546Z,4.43
2018-12-11T09:11:13.918Z,3.77
2018-12-11T09:13:46.843Z,4.17
2018-12-11T09:16:19.451Z,2.90
2018-12-11T09:18:52.674Z,4.23
2018-12-11T09:21:26.130Z,2.13
2018-12-11T09:23:59.420Z,4.10
2018-12-11T09:26:32.575Z,3.47
2018-12-11T09:29:05.765Z,4.83
2018-12-11T09:31:43.141Z,3.53
2018-12-11T09:34:18.622Z,7.70
2018-12-11T09:36:51.872Z,6.50
2018-12-11T09:39:24.989Z,20.87
2018-12-11T09:41:58.485Z,59.07
2018-12-11T09:44:31.452Z,41.77
2018-12-11T09:47:05.215Z,10.97
2018-12-11T09:49:44.889Z,4.53
2018-12-11T09:52:17.873Z,6.07
2018-12-11T09:54:53.878Z,3.10
2018-12-11T09:57:28.113Z,3.57
2018-12-11T10:00:06.713Z,9.00
2018-12-11T10:02:42.533Z,4.67
2018-12-11T10:05:15.190Z,5.37
2018-12-11T10:07:48.114Z,3.07
2018-12-11T10:10:22.726Z,14.00
2018-12-11T10:12:55.780Z,10.80
2018-12-11T10:15:28.365Z,12.30
2018-12-11T10:18:00.674Z,12.73
2018-12-11T10:20:39.846Z,7.33
2018-12-11T10:23:12.511Z,27.13
2018-12-11T10:25:45.527Z,14.20
2018-12-11T10:28:17.703Z,19.10
2018-12-11T10:30:49.850Z,3.87
2018-12-11T10:33:22.698Z,9.83
2018-12-11T10:35:53.759Z,5.67
2018-12-11T10:38:26.827Z,8.10
2018-12-11T10:41:00.331Z,6.97
2018-12-11T10:43:35.612Z,5.73
2018-12-11T10:46:06.616Z,4.33
2018-12-11T10:48:37.082Z,4.37
2018-12-11T10:51:09.234Z,7.27
2018-12-11T10:53:39.332Z,5.13
2018-12-11T10:59:18.998Z,8.63
2018-12-11T11:04:24.474Z,9.57
2018-12-11T11:07:01.204Z,7.50
2018-12-11T11:09:33.678Z,5.07
2018-12-11T11:12:10.404Z,8.57
2018-12-11T11:14:42.743Z,6.23
2018-12-11T11:17:15.079Z,12.00
2018-12-11T11:19:48.088Z,9.00
2018-12-11T11:22:20.893Z,23.23
2018-12-11T11:24:54.337Z,5.73
2018-12-11T11:27:27.643Z,9.00
2018-12-11T11:30:01.191Z,5.87
2018-12-11T11:32:34.716Z,5.83
2018-12-11T11:35:07.684Z,5.17
2018-12-11T11:37:42.201Z,5.00
2018-12-11T11:43:25.616Z,6.17
2018-12-11T11:45:59.605Z,6.70
2018-12-11T11:48:33.673Z,4.17
2018-12-11T11:51:07.334Z,7.07
2018-12-11T11:53:42.874Z,5.07
2018-12-11T11:56:22.024Z,5.37
2018-12-11T11:58:55.846Z,11.33
2018-12-11T12:01:30.238Z,35.57
2018-12-11T12:04:04.221Z,14.33
2018-12-11T12:06:36.940Z,7.97
2018-12-11T12:09:09.829Z,4.73
2018-12-11T12:11:43.273Z,7.60
2018-12-11T12:14:21.176Z,5.97
2018-12-11T12:16:54.759Z,5.30
2018-12-11T12:19:30.729Z,4.30
2018-12-11T12:22:06.702Z,4.87
2018-12-11T12:24:42.054Z,3.37
2018-12-11T12:27:16.269Z,5.13
2018-12-11T12:32:45.611Z,5.47
2018-12-11T12:35:14.791Z,2.87
2018-12-11T12:37:43.991Z,7.50
2018-12-11T12:40:17.592Z,4.17
2018-12-11T12:42:53.208Z,7.10
2018-12-11T12:45:23.956Z,7.10
2018-12-11T12:47:58.299Z,4.03
2018-12-11T12:50:31.306Z,10.37
2018-12-11T12:53:03.984Z,8.43
2018-12-11T12:55:37.644Z,9.93
2018-12-11T12:58:13.598Z,5.93
2018-12-11T13:00:53.802Z,5.30
2018-12-11T13:03:36.716Z,6.03
2018-12-11T13:06:13.929Z,4.37
2018-12-11T13:08:53.212Z,7.47
2018-12-11T13:11:31.098Z,6.50
2018-12-11T13:14:04.625Z,10.80
2018-12-11T13:16:39.985Z,4.17
2018-12-11T13:19:13.028Z,2.27
2018-12-11T13:21:46.366Z,1.50
2018-12-11T13:24:21.423Z,6.37
2018-12-11T13:26:58.469Z,10.23
2018-12-11T13:29:31.550Z,11.73
2018-12-11T13:32:05.332Z,4.03
2018-12-11T13:34:36.953Z,1.63
2018-12-11T13:37:09.389Z,1.57
2018-12-11T13:39:48.745Z,1.47
2018-12-11T13:42:29.956Z,2.67
2018-12-11T13:45:08.188Z,1.57
2018-12-11T13:50:42.539Z,5.30
2018-12-11T13:53:15.437Z,4.60
2018-12-11T13:55:48.275Z,3.47
2018-12-11T13:58:25.897Z,5.10
2018-12-11T14:01:03.661Z,4.67
2018-12-11T14:03:43.982Z,4.60
2018-12-11T14:06:23.094Z,4.63
2018-12-11T14:08:57.935Z,3.97
2018-12-11T14:11:29.964Z,3.97
2018-12-11T14:14:02.850Z,3.17
2018-12-11T14:16:39.098Z,2.40
2018-12-11T14:19:13.890Z,4.77
2018-12-11T14:21:56.119Z,4.10
2018-12-11T14:24:34.020Z,5.40
2018-12-11T14:27:10.604Z,5.17
2018-12-11T14:29:47.441Z,5.47
2018-12-11T14:32:22.252Z,4.57
2018-12-11T14:34:55.835Z,2.27
2018-12-11T14:37:30.499Z,2.63
2018-12-11T14:40:03.266Z,3.30
2018-12-11T14:42:38.450Z,7.23
2018-12-11T14:45:12.628Z,44.87
2018-12-11T14:47:49.893Z,7.83
2018-12-11T14:50:21.952Z,4.63
2018-12-11T14:52:56.200Z,8.93
2018-12-11T14:55:32.753Z,4.90
2018-12-11T14:58:05.814Z,3.73
2018-12-11T15:00:40.678Z,3.50
2018-12-11T15:03:17.718Z,4.27
2018-12-11T15:05:54.410Z,4.17
2018-12-11T15:08:30.203Z,5.10
2018-12-11T15:11:05.808Z,4.13
2018-12-11T15:13:38.469Z,3.90
2018-12-11T15:16:24.109Z,4.27
2018-12-11T15:19:10.414Z,4.90
2018-12-11T15:21:54.110Z,5.00
2018-12-11T15:24:30.935Z,6.90
2018-12-11T15:27:08.875Z,6.20
2018-12-11T15:29:56.156Z,5.77
2018-12-11T15:32:44.123Z,5.80
2018-12-11T15:38:23.514Z,6.13
2018-12-11T15:40:55.104Z,3.77
2018-12-11T15:43:45.736Z,11.13
2018-12-11T15:46:32.253Z,7.47
2018-12-11T15:49:06.418Z,10.47
2018-12-11T15:51:52.739Z,6.97
2018-12-11T15:54:27.021Z,8.00
2018-12-11T15:57:08.786Z,6.90
2018-12-11T15:59:43.972Z,7.73
2018-12-11T16:02:23.105Z,6.10
2018-12-11T16:05:01.268Z,5.00
2018-12-11T16:07:41.062Z,8.53
2018-12-11T16:10:19.057Z,10.97
2018-12-11T16:12:55.410Z,6.07
2018-12-11T16:15:36.090Z,8.10
2018-12-11T16:18:12.242Z,6.07
2018-12-11T16:20:49.738Z,7.93
2018-12-11T16:23:20.398Z,8.13
2018-12-11T16:25:49.912Z,6.87
2018-12-11T16:28:18.986Z,5.27
2018-12-11T16:30:48.139Z,7.30
2018-12-11T16:33:18.185Z,5.43
2018-12-11T16:35:47.268Z,4.20
2018-12-11T16:38:16.337Z,7.73
2018-12-11T16:40:45.434Z,7.90
2018-12-11T16:43:14.597Z,4.87
2018-12-11T16:45:43.670Z,12.57
2018-12-11T16:48:12.849Z,16.47
2018-12-11T16:50:42.184Z,45.47
2018-12-11T16:53:11.486Z,45.07
2018-12-11T16:55:40.537Z,11.57
2018-12-11T16:58:09.778Z,8.13
2018-12-11T17:00:56.079Z,6.97
2018-12-11T17:03:30.911Z,9.57
2018-12-11T17:06:03.313Z,9.13
2018-12-11T17:08:34.309Z,8.97
2018-12-11T17:11:16.158Z,6.83
2018-12-11T17:13:48.247Z,6.70
2018-12-11T17:16:19.445Z,8.87
2018-12-11T17:18:52.562Z,8.20
2018-12-11T17:21:27.786Z,8.20
2018-12-11T17:24:00.479Z,9.20
2018-12-11T17:26:31.410Z,11.23
2018-12-11T17:29:04.520Z,7.93
2018-12-11T17:31:55.881Z,9.87
2018-12-11T17:37:47.606Z,9.27
2018-12-11T17:40:16.808Z,9.60
2018-12-11T17:42:45.878Z,11.70
2018-12-11T17:45:14.923Z,7.03
2018-12-11T17:47:44.002Z,11.93
2018-12-11T17:50:13.083Z,10.37
2018-12-11T17:52:42.223Z,8.50
2018-12-11T17:55:11.264Z,6.13
2018-12-11T17:57:41.994Z,7.53
2018-12-11T18:00:12.653Z,8.80
2018-12-11T18:02:42.512Z,7.87
2018-12-11T18:05:13.763Z,8.43
2018-12-11T18:07:48.997Z,9.40
2018-12-11T18:10:19.667Z,10.57
2018-12-11T18:12:54.909Z,10.30
2018-12-11T18:15:25.854Z,12.97
2018-12-11T18:17:58.942Z,6.97
2018-12-11T18:20:31.493Z,13.13
2018-12-11T18:23:04.520Z,9.73
2018-12-11T18:25:38.598Z,25.67
2018-12-11T18:28:11.516Z,11.33
2018-12-11T18:30:44.565Z,12.23
2018-12-11T18:33:17.138Z,9.67
2018-12-11T18:35:49.063Z,10.80
2018-12-11T18:38:27.872Z,12.17
2018-12-11T18:41:01.045Z,11.33
2018-12-11T18:43:36.302Z,12.60
2018-12-11T18:46:11.061Z,10.67
2018-12-11T18:48:43.880Z,10.07
2018-12-11T18:51:16.953Z,14.40
2018-12-11T18:53:49.164Z,11.30
2018-12-11T18:56:22.052Z,12.70
2018-12-11T18:58:55.168Z,18.73
2018-12-11T19:01:28.211Z,15.90
2018-12-11T19:04:01.601Z,17.00
2018-12-11T19:06:34.718Z,10.20
2018-12-11T19:09:07.745Z,13.70
2018-12-11T19:11:42.839Z,14.53
2018-12-11T19:14:19.138Z,9.73
2018-12-11T19:16:52.737Z,12.80
2018-12-11T19:19:26.416Z,15.37
2018-12-11T19:22:01.625Z,10.53
2018-12-11T19:24:41.086Z,8.93
2018-12-11T19:27:13.971Z,12.23
2018-12-11T19:29:48.712Z,14.57
2018-12-11T19:32:24.579Z,10.10
2018-12-11T19:34:57.133Z,11.90
2018-12-11T19:37:30.203Z,12.20
2018-12-11T19:40:03.882Z,10.17
2018-12-11T19:42:42.834Z,11.87
2018-12-11T19:45:15.645Z,17.10
2018-12-11T19:47:48.482Z,15.17
2018-12-11T19:50:20.679Z,14.23
2018-12-11T19:52:54.075Z,13.60
2018-12-11T19:55:26.695Z,13.17
2018-12-11T19:57:59.960Z,14.50
2018-12-11T20:00:33.097Z,10.70
2018-12-11T20:03:10.478Z,14.10
2018-12-11T20:05:40.110Z,11.93
2018-12-11T20:08:12.711Z,19.77
2018-12-11T20:10:47.093Z,16.73
2018-12-11T20:13:21.832Z,15.23
2018-12-11T20:15:54.636Z,14.37
2018-12-11T20:18:27.616Z,18.67
2018-12-11T20:21:03.178Z,13.20
2018-12-11T20:23:36.237Z,16.23
2018-12-11T20:26:08.836Z,14.97
2018-12-11T20:28:41.152Z,15.13
2018-12-11T20:31:13.579Z,15.43
2018-12-11T20:33:51.967Z,15.37
2018-12-11T20:36:25.650Z,17.33
2018-12-11T20:38:57.264Z,18.47
2018-12-11T20:41:31.038Z,18.37
2018-12-11T20:44:01.901Z,16.33
2018-12-11T20:46:34.340Z,19.33
2018-12-11T20:49:07.290Z,19.27
2018-12-11T20:51:38.555Z,18.07
2018-12-11T20:54:14.402Z,16.67
2018-12-11T20:56:46.655Z,16.03
2018-12-11T20:59:26.330Z,21.63
2018-12-11T21:01:58.871Z,17.47
2018-12-11T21:04:33.593Z,26.73
2018-12-11T21:07:05.114Z,15.50
2018-12-11T21:09:37.440Z,17.03
2018-12-11T21:12:10.492Z,17.47
2018-12-11T21:14:43.669Z,21.10
2018-12-11T21:17:17.626Z,14.10
2018-12-11T21:19:52.509Z,16.20
2018-12-11T21:22:27.256Z,16.43
2018-12-11T21:25:01.773Z,15.80
2018-12-11T21:27:37.701Z,15.27
2018-12-11T21:30:11.679Z,19.10
2018-12-11T21:32:46.537Z,15.33
2018-12-11T21:35:20.269Z,18.07
2018-12-11T21:37:52.831Z,17.30
2018-12-11T21:40:26.679Z,16.47
2018-12-11T21:42:58.426Z,14.00
2018-12-11T21:45:34.206Z,18.30
2018-12-11T21:48:08.184Z,18.43
2018-12-11T21:50:40.431Z,21.73
2018-12-11T21:53:14.564Z,18.23
2018-12-11T21:55:47.783Z,19.07
2018-12-11T21:58:27.052Z,16.00
2018-12-11T22:01:02.224Z,20.43
2018-12-11T22:03:36.816Z,17.80
2018-12-11T22:06:10.518Z,16.20
2018-12-11T22:08:43.841Z,20.10
2018-12-11T22:11:16.456Z,19.10
2018-12-11T22:13:46.927Z,20.03
2018-12-11T22:16:22.933Z,16.77
2018-12-11T22:18:58.433Z,17.67
2018-12-11T22:21:31.267Z,16.03
2018-12-11T22:24:03.164Z,15.70
2018-12-11T22:26:39.195Z,16.40
2018-12-11T22:29:11.728Z,18.20
2018-12-11T22:31:49.893Z,15.63
2018-12-11T22:34:22.882Z,17.27
2018-12-11T22:36:55.707Z,13.70
2018-12-11T22:39:31.493Z,18.63
2018-12-11T22:42:03.414Z,16.60
2018-12-11T22:44:39.003Z,17.57
2018-12-11T22:47:12.918Z,20.57
2018-12-11T22:49:48.399Z,16.87
2018-12-11T22:52:22.054Z,18.40
2018-12-11T22:54:59.483Z,20.17
2018-12-11T22:57:35.687Z,16.63
2018-12-11T23:00:12.720Z,16.93
2018-12-11T23:02:48.539Z,17.90
2018-12-11T23:05:21.599Z,18.07
2018-12-11T23:07:56.527Z,18.13
2018-12-11T23:10:36.165Z,15.43
2018-12-11T23:13:12.502Z,21.53
2018-12-11T23:15:54.008Z,21.37
2018-12-11T23:18:29.502Z,19.53
2018-12-11T23:21:06.809Z,21.63
2018-12-11T23:23:40.406Z,22.77
2018-12-11T23:26:13.701Z,15.60
2018-12-11T23:28:50.464Z,17.53
2018-12-11T23:31:23.812Z,14.30
2018-12-11T23:33:56.523Z,16.07
2018-12-11T23:36:29.476Z,21.83
2018-12-11T23:39:03.825Z,19.53
2018-12-11T23:41:38.886Z,15.30
2018-12-11T23:44:12.048Z,14.53
2018-12-11T23:46:45.277Z,19.70
2018-12-11T23:49:18.818Z,15.47
2018-12-11T23:51:52.436Z,11.30
2018-12-11T23:54:26.287Z,16.03
2018-12-11T23:57:00.590Z,15.77
2018-12-11T23:59:31.540Z,15.53
